London, Minnesota
Current Conditions -  °F | °C
As of 11:41 PM on Thursday 27 Nov 2014 (Local Time) from KAEL Reporting Station
Overcast Overcast  
Wind Chill: -21°   Ceiling: 1800
Heat Index: -13°   Visibility: 2.5mi
Dew Point: -16°   Wind: 10mph
Humidity: 79%   Direction: 140°SE
Pressure: 30.22"   Gusts: NA
Location:  43.5439°N, 93.1707°W
Report Text: KAEL 280541Z AUTO 14009KT 2 1/2SM SCT013 BKN018 OVC043 M13/M16 A3022 RMK AO2
Loading
Personal Weather Stations






























Interactive Weather Map New forecast layout! Learn more

10-Day Weather Forecast

Advertisements
Track Severe Weather on mobile